METAR AND TAF INFORMATION
METAR FOR EBBR
ADDS - METARS form results

(2316 UTC 21 April 2018)
Data provider http://aviationweather.gov/adds/metars/
 
METAR text: EBBR 212250Z 10003KT CAVOK 16/10 Q1016 NOSIG
Conditions at: EBBR (BRUSSELS NATIONA, BE) observed 2250 UTC 21 April 2018
Temperature: 16.0°C (61°F)
Dewpoint: 10.0°C (50°F) [RH = 68%]
Pressure (altimeter): 30.00 inches Hg (1016.0 mb)
Winds: from the E (100 degrees) at 3 MPH (3 knots; 1.6 m/s)
Visibility: 6 or more miles (10+ km)
Ceiling: ceiling and visibility are OK
Clouds: unknown
Weather: no significant weather observed at this time

METAR text: EBBR 212220Z 10003KT 9000 NSC 16/10 Q1017 NOSIG
Conditions at: EBBR (BRUSSELS NATIONA, BE) observed 2220 UTC 21 April 2018
Temperature: 16.0°C (61°F)
Dewpoint: 10.0°C (50°F) [RH = 68%]
Pressure (altimeter): 30.03 inches Hg (1017.0 mb)
Winds: from the E (100 degrees) at 3 MPH (3 knots; 1.6 m/s)
Visibility: 6 miles (9 km)
Ceiling: at least 12,000 feet AGL
Clouds: sky clear below 12,000 feet AGL
Weather: no significant weather observed at this time

Forecast for: EBBR (BRUSSELS NATIONA, BE)
Text: TAF EBBR 211701Z 2118/2224 09005KT CAVOK
Forecast period: 1800 UTC 21 April 2018 to 1000 UTC 22 April 2018
Forecast type: FROM: standard forecast or significant change
Winds: from the E (90 degrees) at 6 MPH (5 knots; 2.6 m/s)
Visibility: 6 or more miles (10+ km)
Clouds: not forecast
Weather: NSW  (no significant weather)
Forecast for: EBBR (BRUSSELS NATIONA, BE)
Text: TAF EBBR 211701Z 2118/2224 09005KT CAVOK
Forecast period: 1800 UTC 21 April 2018 to 1000 UTC 22 April 2018
Forecast type: FROM: standard forecast or significant change
Winds: from the E (90 degrees) at 6 MPH (5 knots; 2.6 m/s)
Visibility: 6 or more miles (10+ km)
Clouds: not forecast
Weather: NSW  (no significant weather)
Forecast for: EBBR (BRUSSELS NATIONA, BE)
Text: TAF EBBR 211701Z 2118/2224 09005KT CAVOK
Forecast period: 0100 to 0800 UTC 22 April 2018
Forecast type: TEMPORARY: The following changes expected for less than half the time period
Visibility: 2.49 miles (4.01 km)
Weather: BR  (mist)
Forecast for: EBBR (BRUSSELS NATIONA, BE)
Text: TAF EBBR 211701Z 2118/2224 09005KT CAVOK
Forecast period: 0100 to 0800 UTC 22 April 2018
Forecast type: TEMPORARY: The following changes expected for less than half the time period
Visibility: 2.49 miles (4.01 km)
Weather: BR  (mist)
Forecast for: EBBR (BRUSSELS NATIONA, BE)
Text: TAF EBBR 211701Z 2118/2224 09005KT CAVOK
Forecast period: 0400 to 0700 UTC 22 April 2018
Forecast type: PROBABLE: 30 percent likelihood of the following during this time
Winds: variable direction winds at 17 MPH (15 knots; 7.8 m/s)
gusting to 29 MPH (25 knots; 13.0 m/s)
Weather: -TSRA  (light rain associated with thunderstorm(s))
Forecast for: EBBR (BRUSSELS NATIONA, BE)
Text: TAF EBBR 211701Z 2118/2224 09005KT CAVOK
Forecast period: 0400 to 0700 UTC 22 April 2018
Forecast type: PROBABLE: 30 percent likelihood of the following during this time
Winds: variable direction winds at 17 MPH (15 knots; 7.8 m/s)
gusting to 29 MPH (25 knots; 13.0 m/s)
Weather: -TSRA  (light rain associated with thunderstorm(s))
Forecast for: EBBR (BRUSSELS NATIONA, BE)
Text: TAF EBBR 211701Z 2118/2224 09005KT CAVOK
Forecast period: 1000 UTC 22 April 2018 to 0000 UTC 23 April 2018
Forecast type: BECOMING: Conditions expected to become as follows by 1200 UTC 22 April 2018
Winds: from the SSW (210 degrees) at 12 MPH (10 knots; 5.2 m/s)
Visibility: 6 or more miles (10+ km)
Weather: NSW  (no significant weather)
Forecast for: EBBR (BRUSSELS NATIONA, BE)
Text: TAF EBBR 211701Z 2118/2224 09005KT CAVOK
Forecast period: 1000 UTC 22 April 2018 to 0000 UTC 23 April 2018
Forecast type: BECOMING: Conditions expected to become as follows by 1200 UTC 22 April 2018
Winds: from the SSW (210 degrees) at 12 MPH (10 knots; 5.2 m/s)
Visibility: 6 or more miles (10+ km)
Weather: NSW  (no significant weather)
Forecast for: EBBR (BRUSSELS NATIONA, BE)
Text: TAF EBBR 211701Z 2118/2224 09005KT CAVOK
Forecast period: 1600 to 2000 UTC 22 April 2018
Forecast type: TEMPORARY: The following changes expected for less than half the time period
Winds: from the SW (230 degrees) at 17 MPH (15 knots; 7.8 m/s)
gusting to 29 MPH (25 knots; 13.0 m/s)
Visibility: 2.49 miles (4.01 km)
Weather: SHRA  (rain showers)
Forecast for: EBBR (BRUSSELS NATIONA, BE)
Text: TAF EBBR 211701Z 2118/2224 09005KT CAVOK
Forecast period: 1600 to 2000 UTC 22 April 2018
Forecast type: TEMPORARY: The following changes expected for less than half the time period
Winds: from the SW (230 degrees) at 17 MPH (15 knots; 7.8 m/s)
gusting to 29 MPH (25 knots; 13.0 m/s)
Visibility: 2.49 miles (4.01 km)
Weather: SHRA  (rain showers)

 AIRPORT MAP

 RUNWAY INFORMATION
Runway 01 Runway length 9800 ft Runway width 164 ft
Runway elevation 183 ft Runway displaced threshold 151 ft Runway heading 14
Runway 19 Runway length 9800 ft Runway width 164 ft
Runway elevation 113 ft Runway displaced threshold 571 ft Runway heading 194
Runway 07L Runway length 11936 ft Runway width 148 ft
Runway elevation 129 ft Runway displaced threshold 846 ft Runway heading 65
Runway 25R Runway length 11936 ft Runway width 148 ft
Runway elevation 110 ft Runway displaced threshold 984 ft Runway heading 245
Runway 07R Runway length 10535 ft Runway width 148 ft
Runway elevation 175 ft Runway displaced threshold 400 ft Runway heading 70
Runway 25L Runway length 10535 ft Runway width 148 ft
Runway elevation 159 ft Runway displaced threshold 0 ft Runway heading 250

 AIRPORT FREQUENCIES
Type APP Name APP Frequency 118.25 MHZ
Type ATIS Name ATIS DEP Frequency 121.75 MHZ
Type ATIS Name ATIS ARR Frequency 132.475 MHZ
Type CLD Name CLNC DEL Frequency 121.95 MHZ
Type DEP Name DEP Frequency 126.625 MHZ
Type GND Name GND North Frequency 118.05 MHZ
Type GND Name GND South Frequency 121.875 MHZ
Type OPS Name MELSBROEK Frequency 140.575 MHZ
Type TWR Name TWR (RWY 0 Frequency 118.6 MHZ
Type TWR Name TWR (RWY 0 Frequency 120.775 MHZ
Type UNIC Name ABELAG UNI Frequency 130.55 MHZ

 AIRPORT NEAR NAVIGATION AIDS
Type VOR-DME Name Affligem Frequency 114900 KHZ
Type VOR-DME Name Brussels Frequency 114600 KHZ
Type VOR-DME Name Bruno Frequency 110600 KHZ
Type NDB Name Brussels Frequency 293 KHZ
Type NDB Name Brussels Frequency 314 KHZ



© 2017-2018 LuxairVA.com | All Rights Reserved |